createdAt,value
2018-09-28T00:00:28.851Z,96329.88
2018-09-28T00:02:57.660Z,96332.72
2018-09-28T00:05:26.323Z,96324.31
2018-09-28T00:07:55.032Z,96317.97
2018-09-28T00:10:23.768Z,96319.31
2018-09-28T00:12:52.552Z,96313.20
2018-09-28T00:15:21.267Z,96306.22
2018-09-28T00:17:49.909Z,96296.73
2018-09-28T00:20:18.623Z,96286.97
2018-09-28T00:22:47.272Z,96287.02
2018-09-28T00:25:15.965Z,96275.56
2018-09-28T00:27:44.667Z,96283.09
2018-09-28T00:30:13.377Z,96282.67
2018-09-28T00:32:42.125Z,96273.05
2018-09-28T00:35:10.839Z,96276.25
2018-09-28T00:37:39.537Z,96282.28
2018-09-28T00:40:08.295Z,96278.89
2018-09-28T00:42:36.925Z,96272.95
2018-09-28T00:45:05.703Z,96269.62
2018-09-28T00:47:34.728Z,96268.99
2018-09-28T00:50:03.467Z,96273.22
2018-09-28T00:52:32.117Z,96262.07
2018-09-28T00:55:00.820Z,96255.69
2018-09-28T00:57:29.480Z,96255.16
2018-09-28T00:59:58.108Z,96250.55
2018-09-28T01:02:26.765Z,96246.97
2018-09-28T01:04:55.428Z,96245.29
2018-09-28T01:07:24.075Z,96242.73
2018-09-28T01:09:52.713Z,96250.13
2018-09-28T01:12:21.351Z,96260.69
2018-09-28T01:14:50.008Z,96253.75
2018-09-28T01:17:18.674Z,96242.22
2018-09-28T01:19:47.303Z,96238.04
2018-09-28T01:22:16.019Z,96240.03
2018-09-28T01:24:44.639Z,96238.78
2018-09-28T01:27:13.278Z,96250.53
2018-09-28T01:29:41.907Z,96245.60
2018-09-28T01:32:10.575Z,96251.77
2018-09-28T01:34:39.251Z,96252.98
2018-09-28T01:37:08.148Z,96249.73
2018-09-28T01:39:36.857Z,96240.47
2018-09-28T01:42:05.551Z,96242.27
2018-09-28T01:44:34.167Z,96236.13
2018-09-28T01:47:02.863Z,96240.06
2018-09-28T01:49:31.566Z,96225.03
2018-09-28T01:52:00.207Z,96234.89
2018-09-28T01:54:28.873Z,96223.99
2018-09-28T01:56:57.539Z,96225.30
2018-09-28T01:59:26.342Z,96227.56
2018-09-28T02:01:55.003Z,96223.71
2018-09-28T02:04:23.833Z,96213.76
2018-09-28T02:06:52.536Z,96219.13
2018-09-28T02:09:21.186Z,96215.11
2018-09-28T02:11:49.894Z,96215.27
2018-09-28T02:14:18.533Z,96215.44
2018-09-28T02:16:47.236Z,96224.05
2018-09-28T02:19:15.895Z,96224.14
2018-09-28T02:21:44.567Z,96226.68
2018-09-28T02:24:13.219Z,96231.59
2018-09-28T02:26:41.896Z,96231.30
2018-09-28T02:29:10.573Z,96235.63
2018-09-28T02:31:39.216Z,96219.45
2018-09-28T02:34:07.867Z,96216.61
2018-09-28T02:36:36.525Z,96224.42
2018-09-28T02:39:07.053Z,96225.50
2018-09-28T02:41:35.741Z,96220.45
2018-09-28T02:44:04.506Z,96213.97
2018-09-28T02:46:33.185Z,96201.84
2018-09-28T02:49:02.109Z,96205.63
2018-09-28T02:51:30.855Z,96204.91
2018-09-28T02:53:59.520Z,96205.92
2018-09-28T02:56:28.188Z,96211.34
2018-09-28T02:58:56.845Z,96213.30
2018-09-28T03:01:25.510Z,96219.36
2018-09-28T03:03:54.257Z,96226.89
2018-09-28T03:06:23.187Z,96225.09
2018-09-28T03:08:51.752Z,96219.45
2018-09-28T03:11:20.473Z,96212.36
2018-09-28T03:13:49.120Z,96213.27
2018-09-28T03:16:17.854Z,96212.87
2018-09-28T03:18:46.623Z,96211.86
2018-09-28T03:21:15.332Z,96205.55
2018-09-28T03:23:44.013Z,96207.49
2018-09-28T03:26:12.714Z,96201.11
2018-09-28T03:28:41.360Z,96212.65
2018-09-28T03:31:10.111Z,96217.62
2018-09-28T03:33:38.753Z,96213.14
2018-09-28T03:36:07.482Z,96210.47
2018-09-28T03:38:36.751Z,96209.38
2018-09-28T03:41:05.549Z,96207.06
2018-09-28T03:43:34.280Z,96203.17
2018-09-28T03:46:03.068Z,96209.35
2018-09-28T03:48:31.712Z,96201.00
2018-09-28T03:51:00.485Z,96202.31
2018-09-28T03:53:29.133Z,96192.09
2018-09-28T03:55:57.786Z,96191.11
2018-09-28T03:58:26.495Z,96185.91
2018-09-28T04:00:55.228Z,96186.48
2018-09-28T04:03:23.901Z,96184.95
2018-09-28T04:05:52.605Z,96175.91
2018-09-28T04:08:21.268Z,96170.52
2018-09-28T04:10:49.955Z,96168.60
2018-09-28T04:13:18.647Z,96164.97
2018-09-28T04:15:47.371Z,96175.23
2018-09-28T04:18:16.124Z,96154.02
2018-09-28T04:20:44.763Z,96160.29
2018-09-28T04:23:13.449Z,96150.91
2018-09-28T04:25:42.409Z,96155.36
2018-09-28T04:28:11.084Z,96154.70
2018-09-28T04:30:39.864Z,96147.59
2018-09-28T04:33:08.659Z,96145.73
2018-09-28T04:35:37.364Z,96143.95
2018-09-28T04:38:06.015Z,96142.03
2018-09-28T04:40:34.739Z,96151.86
2018-09-28T04:43:03.562Z,96142.98
2018-09-28T04:45:32.382Z,96138.78
2018-09-28T04:48:01.476Z,96132.59
2018-09-28T04:50:30.176Z,96135.80
2018-09-28T04:52:58.835Z,96139.63
2018-09-28T04:55:27.556Z,96131.43
2018-09-28T04:57:56.204Z,96128.03
2018-09-28T05:00:24.923Z,96131.83
2018-09-28T05:02:53.684Z,96138.34
2018-09-28T05:05:22.309Z,96136.25
2018-09-28T05:07:51.196Z,96135.59
2018-09-28T05:10:19.849Z,96136.50
2018-09-28T05:12:48.490Z,96130.17
2018-09-28T05:15:17.232Z,96132.36
2018-09-28T05:17:45.884Z,96134.22
2018-09-28T05:20:14.511Z,96131.19
2018-09-28T05:22:43.413Z,96129.75
2018-09-28T05:25:12.118Z,96134.91
2018-09-28T05:27:40.847Z,96128.91
2018-09-28T05:30:09.651Z,96139.88
2018-09-28T05:32:38.513Z,96140.47
2018-09-28T05:35:07.096Z,96139.86
2018-09-28T05:37:35.737Z,96132.94
2018-09-28T05:40:04.488Z,96130.94
2018-09-28T05:42:33.123Z,96135.17
2018-09-28T05:45:01.816Z,96139.81
2018-09-28T05:47:30.466Z,96133.99
2018-09-28T05:49:59.319Z,96128.54
2018-09-28T05:52:28.008Z,96137.45
2018-09-28T05:54:56.699Z,96119.76
2018-09-28T05:57:25.427Z,96129.39
2018-09-28T05:59:59.215Z,96129.09
2018-09-28T06:02:33.097Z,96134.20
2018-09-28T06:05:07.044Z,96135.27
2018-09-28T06:07:35.883Z,96137.45
2018-09-28T06:10:04.683Z,96131.16
2018-09-28T06:12:33.526Z,96141.80
2018-09-28T06:15:02.266Z,96129.75
2018-09-28T06:17:30.999Z,96133.02
2018-09-28T06:19:59.715Z,96133.86
2018-09-28T06:22:28.507Z,96129.64
2018-09-28T06:24:57.328Z,96121.53
2018-09-28T06:27:26.075Z,96119.73
2018-09-28T06:29:54.894Z,96116.33
2018-09-28T06:32:23.625Z,96110.63
2018-09-28T06:34:52.401Z,96110.30
2018-09-28T06:37:21.211Z,96106.56
2018-09-28T06:39:49.832Z,96100.55
2018-09-28T06:42:18.573Z,96105.08
2018-09-28T06:44:47.231Z,96103.43
2018-09-28T06:47:15.848Z,96097.55
2018-09-28T06:49:44.494Z,96087.57
2018-09-28T06:52:13.139Z,96093.20
2018-09-28T06:54:41.809Z,96093.11
2018-09-28T06:57:10.589Z,96094.27
2018-09-28T06:59:39.272Z,96094.69
2018-09-28T07:02:08.021Z,96093.83
2018-09-28T07:04:36.808Z,96092.64
2018-09-28T07:07:05.555Z,96095.56
2018-09-28T07:09:34.368Z,96100.52
2018-09-28T07:12:03.032Z,96090.59
2018-09-28T07:14:31.693Z,96084.65
2018-09-28T07:17:00.714Z,96080.42
2018-09-28T07:19:29.427Z,96073.53
2018-09-28T07:21:58.168Z,96079.84
2018-09-28T07:24:27.858Z,96076.08
2018-09-28T07:26:56.512Z,96079.91
2018-09-28T07:29:25.343Z,96089.41
2018-09-28T07:31:54.244Z,96081.68
2018-09-28T07:34:23.155Z,96077.05
2018-09-28T07:36:51.907Z,96084.74
2018-09-28T07:39:20.487Z,96077.04
2018-09-28T07:41:49.269Z,96070.91
2018-09-28T07:44:17.922Z,96063.91
2018-09-28T07:46:46.804Z,96056.42
2018-09-28T07:49:15.473Z,96053.87
2018-09-28T07:51:44.255Z,96061.91
2018-09-28T07:54:12.915Z,96050.53
2018-09-28T07:56:41.621Z,96047.52
2018-09-28T07:59:10.319Z,96045.20
2018-09-28T08:01:39.134Z,96040.52
2018-09-28T08:04:08.008Z,96034.50
2018-09-28T08:06:36.792Z,96034.27
2018-09-28T08:09:07.760Z,96033.39
2018-09-28T08:11:36.499Z,96033.69
2018-09-28T08:14:05.338Z,96033.53
2018-09-28T08:16:34.150Z,96037.33
2018-09-28T08:19:02.870Z,96033.88
2018-09-28T08:21:31.688Z,96029.22
2018-09-28T08:24:01.041Z,96028.09
2018-09-28T08:26:29.722Z,96028.91
2018-09-28T08:28:58.423Z,96030.31
2018-09-28T08:31:27.074Z,96021.76
2018-09-28T08:33:55.761Z,96011.64
2018-09-28T08:36:24.563Z,96017.20
2018-09-28T08:38:53.204Z,96019.06
2018-09-28T08:41:21.855Z,96020.24
2018-09-28T08:43:50.527Z,96016.03
2018-09-28T08:46:19.547Z,96005.14
2018-09-28T08:48:48.290Z,95995.59
2018-09-28T08:51:17.105Z,96000.67
2018-09-28T08:54:00.476Z,95998.16
2018-09-28T08:56:29.191Z,95993.63
2018-09-28T08:58:58.248Z,95992.27
2018-09-28T09:01:26.983Z,95995.88
2018-09-28T09:03:55.631Z,95985.18
2018-09-28T09:06:24.394Z,95983.55
2018-09-28T09:08:53.141Z,95970.17
2018-09-28T09:11:21.868Z,95980.98
2018-09-28T09:13:50.759Z,95963.48
2018-09-28T09:16:19.591Z,95950.95
2018-09-28T09:18:48.354Z,95950.08
2018-09-28T09:21:17.103Z,95952.20
2018-09-28T09:23:45.803Z,95947.52
2018-09-28T09:26:14.548Z,95949.58
2018-09-28T09:28:43.291Z,95942.08
2018-09-28T09:31:11.975Z,95947.56
2018-09-28T09:33:40.608Z,95931.47
2018-09-28T09:36:09.296Z,95939.13
2018-09-28T09:38:37.935Z,95929.44
2018-09-28T09:41:07.000Z,95919.61
2018-09-28T09:43:35.687Z,95912.89
2018-09-28T09:46:04.336Z,95905.05
2018-09-28T09:48:33.978Z,95907.45
2018-09-28T09:51:02.725Z,95895.75
2018-09-28T09:53:31.457Z,95888.92
2018-09-28T09:56:00.150Z,95884.84
2018-09-28T09:58:28.912Z,95880.77
2018-09-28T10:01:02.780Z,95865.72
2018-09-28T10:03:36.725Z,95873.77
2018-09-28T10:06:05.535Z,95865.31
2018-09-28T10:08:34.440Z,95860.80
2018-09-28T10:11:03.773Z,95864.80
2018-09-28T10:13:32.500Z,95851.42
2018-09-28T10:16:02.408Z,95845.15
2018-09-28T10:18:31.158Z,95851.34
2018-09-28T10:20:59.928Z,95834.31
2018-09-28T10:23:28.731Z,95840.20
2018-09-28T10:25:57.581Z,95835.19
2018-09-28T10:28:26.437Z,95834.83
2018-09-28T10:30:55.163Z,95820.65
2018-09-28T10:33:23.880Z,95825.88
2018-09-28T10:35:52.677Z,95806.86
2018-09-28T10:38:21.438Z,95812.83
2018-09-28T10:40:50.304Z,95794.89
2018-09-28T10:43:18.964Z,95792.87
2018-09-28T10:45:47.707Z,95803.03
2018-09-28T10:48:16.410Z,95780.50
2018-09-28T10:50:45.106Z,95771.97
2018-09-28T10:53:13.861Z,95781.17
2018-09-28T10:55:42.519Z,95775.63
2018-09-28T10:58:11.281Z,95771.74
2018-09-28T11:00:39.935Z,95753.49
2018-09-28T11:03:08.773Z,95756.81
2018-09-28T11:05:37.576Z,95747.83
2018-09-28T11:08:06.403Z,95736.68
2018-09-28T11:10:35.085Z,95710.52
2018-09-28T11:13:03.888Z,95731.34
2018-09-28T11:15:32.652Z,95733.72
2018-09-28T11:18:01.289Z,95725.27
2018-09-28T11:20:30.040Z,95717.27
2018-09-28T11:22:58.699Z,95709.56
2018-09-28T11:25:27.391Z,95705.20
2018-09-28T11:27:56.089Z,95702.67
2018-09-28T11:30:24.810Z,95691.45
2018-09-28T11:32:53.493Z,95697.99
2018-09-28T11:35:22.161Z,95699.02
2018-09-28T11:37:51.225Z,95689.41
2018-09-28T11:40:19.832Z,95683.14
2018-09-28T11:42:48.596Z,95671.75
2018-09-28T11:45:17.301Z,95673.28
2018-09-28T11:47:45.958Z,95668.87
2018-09-28T11:50:14.736Z,95630.42
2018-09-28T11:52:43.520Z,95658.39
2018-09-28T11:55:12.261Z,95650.05
2018-09-28T11:57:41.160Z,95645.88
2018-09-28T12:00:12.620Z,95655.60
2018-09-28T12:02:41.369Z,95647.47
2018-09-28T12:05:10.049Z,95654.30
2018-09-28T12:07:38.740Z,95646.69
2018-09-28T12:10:07.588Z,95621.77
2018-09-28T12:12:36.494Z,95624.09
2018-09-28T12:15:05.379Z,95619.61
2018-09-28T12:17:34.066Z,95633.05
2018-09-28T12:20:02.752Z,95629.56
2018-09-28T12:22:31.425Z,95624.60
2018-09-28T12:25:00.220Z,95610.83
2018-09-28T12:27:29.030Z,95619.84
2018-09-28T12:29:57.775Z,95605.89
2018-09-28T12:32:26.440Z,95618.78
2018-09-28T12:34:55.135Z,95613.08
2018-09-28T12:37:23.818Z,95614.23
2018-09-28T12:39:52.640Z,95606.75
2018-09-28T12:42:21.459Z,95605.20
2018-09-28T12:44:50.250Z,95604.45
2018-09-28T12:47:18.987Z,95591.11
2018-09-28T12:49:47.747Z,95581.39
2018-09-28T12:52:16.577Z,95586.91
2018-09-28T12:54:45.353Z,95585.38
2018-09-28T12:57:14.228Z,95577.75
2018-09-28T12:59:43.084Z,95569.87
2018-09-28T13:02:11.845Z,95573.27
2018-09-28T13:04:40.611Z,95570.55
2018-09-28T13:07:09.418Z,95586.47
2018-09-28T13:09:38.159Z,95569.60
2018-09-28T13:12:07.843Z,95557.44
2018-09-28T13:14:36.639Z,95554.66
2018-09-28T13:17:05.494Z,95548.81
2018-09-28T13:19:34.353Z,95557.63
2018-09-28T13:22:03.060Z,95562.30
2018-09-28T13:24:32.054Z,95554.66
2018-09-28T13:27:00.836Z,95556.81
2018-09-28T13:29:29.818Z,95549.75
2018-09-28T13:31:58.504Z,95550.55
2018-09-28T13:34:27.281Z,95536.45
2018-09-28T13:36:55.991Z,95543.70
2018-09-28T13:39:24.661Z,95548.38
2018-09-28T13:41:53.437Z,95548.16
2018-09-28T13:44:22.186Z,95539.09
2018-09-28T13:46:51.105Z,95535.98
2018-09-28T13:49:19.744Z,95537.97
2018-09-28T13:51:48.447Z,95530.69
2018-09-28T13:54:17.208Z,95527.36
2018-09-28T13:56:46.012Z,95516.62
2018-09-28T13:59:14.761Z,95518.01
2018-09-28T14:01:43.494Z,95509.01
2018-09-28T14:04:12.145Z,95508.02
2018-09-28T14:06:40.938Z,95516.04
2018-09-28T14:09:10.372Z,95524.42
2018-09-28T14:11:39.296Z,95512.86
2018-09-28T14:14:08.116Z,95505.42
2018-09-28T14:16:37.344Z,95503.52
2018-09-28T14:19:06.267Z,95498.73
2018-09-28T14:21:35.094Z,95494.98
2018-09-28T14:24:03.784Z,95507.89
2018-09-28T14:26:32.679Z,95500.65
2018-09-28T14:29:01.392Z,95498.70
2018-09-28T14:31:30.075Z,95505.73
2018-09-28T14:33:58.852Z,95510.61
2018-09-28T14:36:27.649Z,95496.89
2018-09-28T14:38:56.272Z,95502.61
2018-09-28T14:41:24.937Z,95500.82
2018-09-28T14:43:53.772Z,95505.45
2018-09-28T14:46:22.716Z,95498.40
2018-09-28T14:48:51.491Z,95489.21
2018-09-28T14:51:20.136Z,95494.27
2018-09-28T14:53:48.805Z,95499.09
2018-09-28T14:56:17.601Z,95504.31
2018-09-28T14:58:46.316Z,95498.84
2018-09-28T15:01:15.933Z,95489.63
2018-09-28T15:03:44.589Z,95491.51
2018-09-28T15:06:13.963Z,95492.26
2018-09-28T15:08:42.760Z,95486.73
2018-09-28T15:11:11.572Z,95491.20
2018-09-28T15:13:40.214Z,95497.77
2018-09-28T15:16:08.955Z,95484.97
2018-09-28T15:18:37.659Z,95495.23
2018-09-28T15:21:06.133Z,95490.85
2018-09-28T15:23:34.948Z,95480.66
2018-09-28T15:26:03.592Z,95479.42
2018-09-28T15:28:32.249Z,95483.28
2018-09-28T15:31:00.946Z,95474.61
2018-09-28T15:33:29.586Z,95476.75
2018-09-28T15:35:58.234Z,95470.62
2018-09-28T15:38:26.941Z,95469.58
2018-09-28T15:40:55.694Z,95466.83
2018-09-28T15:43:24.700Z,95466.37
2018-09-28T15:45:53.439Z,95460.44
2018-09-28T15:48:22.257Z,95451.89
2018-09-28T15:50:50.957Z,95460.24
2018-09-28T15:53:19.645Z,95468.52
2018-09-28T15:55:48.341Z,95473.35
2018-09-28T15:58:17.029Z,95473.81
2018-09-28T16:00:45.724Z,95472.42
2018-09-28T16:03:14.542Z,95474.22
2018-09-28T16:05:43.287Z,95474.48
2018-09-28T16:08:11.954Z,95473.66
2018-09-28T16:10:40.592Z,95482.32
2018-09-28T16:13:09.221Z,95482.23
2018-09-28T16:15:38.033Z,95486.06
2018-09-28T16:18:06.712Z,95479.27
2018-09-28T16:20:35.423Z,95483.97
2018-09-28T16:23:04.243Z,95487.95
2018-09-28T16:25:33.021Z,95482.59
2018-09-28T16:28:01.693Z,95475.66
2018-09-28T16:30:30.452Z,95480.02
2018-09-28T16:32:59.209Z,95477.14
2018-09-28T16:35:27.943Z,95467.70
2018-09-28T16:37:56.614Z,95469.69
2018-09-28T16:40:25.296Z,95473.05
2018-09-28T16:42:54.112Z,95466.13
2018-09-28T16:45:22.760Z,95465.23
2018-09-28T16:47:51.443Z,95467.66
2018-09-28T16:50:20.580Z,95464.05
2018-09-28T16:52:49.388Z,95465.20
2018-09-28T16:55:18.040Z,95462.06
2018-09-28T16:57:46.753Z,95471.22
2018-09-28T17:00:15.593Z,95465.65
2018-09-28T17:02:44.268Z,95467.95
2018-09-28T17:05:12.980Z,95467.95
2018-09-28T17:07:41.668Z,95467.81
2018-09-28T17:10:10.433Z,95477.98
2018-09-28T17:12:39.244Z,95476.53
2018-09-28T17:15:07.928Z,95477.72
2018-09-28T17:17:36.645Z,95481.91
2018-09-28T17:20:05.512Z,95480.05
2018-09-28T17:22:34.161Z,95482.74
2018-09-28T17:25:03.000Z,95485.89
2018-09-28T17:27:31.794Z,95487.45
2018-09-28T17:30:00.557Z,95485.47
2018-09-28T17:32:29.581Z,95486.33
2018-09-28T17:34:58.442Z,95479.31
2018-09-28T17:37:27.100Z,95485.67
2018-09-28T17:39:55.844Z,95484.28
2018-09-28T17:42:24.489Z,95494.80
2018-09-28T17:44:53.151Z,95493.62
2018-09-28T17:47:21.836Z,95495.84
2018-09-28T17:49:50.499Z,95491.95
2018-09-28T17:52:19.241Z,95504.53
2018-09-28T17:54:48.088Z,95507.06
2018-09-28T17:57:16.867Z,95505.28
2018-09-28T17:59:45.635Z,95503.53
2018-09-28T18:02:14.378Z,95500.71
2018-09-28T18:04:43.221Z,95506.69
2018-09-28T18:07:11.901Z,95504.42
2018-09-28T18:09:41.192Z,95501.27
2018-09-28T18:12:09.968Z,95506.73
2018-09-28T18:14:38.660Z,95508.65
2018-09-28T18:17:07.394Z,95503.35
2018-09-28T18:19:36.092Z,95510.61
2018-09-28T18:22:05.041Z,95505.86
2018-09-28T18:24:33.802Z,95509.17
2018-09-28T18:27:02.499Z,95506.91
2018-09-28T18:29:31.144Z,95230.05
2018-09-28T18:31:59.858Z,95517.58
2018-09-28T18:34:28.523Z,95514.30
2018-09-28T18:36:57.175Z,95513.77
2018-09-28T18:39:25.954Z,95515.24
2018-09-28T18:41:54.620Z,95510.59
2018-09-28T18:44:23.344Z,95512.09
2018-09-28T18:46:51.984Z,95519.55
2018-09-28T18:49:21.078Z,95514.59
2018-09-28T18:51:49.847Z,95516.83
2018-09-28T18:54:18.500Z,95520.65
2018-09-28T18:56:47.275Z,95513.34
2018-09-28T18:59:15.928Z,95515.81
2018-09-28T19:01:44.612Z,95505.78
2018-09-28T19:04:13.348Z,95510.75
2018-09-28T19:06:42.091Z,95513.69
2018-09-28T19:09:12.022Z,95518.20
2018-09-28T19:11:41.193Z,95521.25
2018-09-28T19:14:09.885Z,95527.00
2018-09-28T19:16:38.600Z,95524.50
2018-09-28T19:19:07.310Z,95522.81
2018-09-28T19:21:36.003Z,95524.97
2018-09-28T19:24:04.700Z,95527.78
2018-09-28T19:26:33.413Z,95528.89
2018-09-28T19:29:02.151Z,95525.87
2018-09-28T19:31:30.944Z,95525.19
2018-09-28T19:33:59.621Z,95523.14
2018-09-28T19:36:28.360Z,95530.62
2018-09-28T19:38:57.308Z,95521.37
2018-09-28T19:41:26.025Z,95528.24
2018-09-28T19:43:54.834Z,95531.06
2018-09-28T19:46:23.609Z,95523.61
2018-09-28T19:48:52.331Z,95525.08
2018-09-28T19:51:21.065Z,95518.31
2018-09-28T19:53:49.801Z,95519.12
2018-09-28T19:56:18.588Z,95517.75
2018-09-28T19:58:47.236Z,95526.20
2018-09-28T20:01:16.270Z,95517.42
2018-09-28T20:03:45.641Z,95519.44
2018-09-28T20:06:14.371Z,95514.26
2018-09-28T20:08:43.226Z,95513.92
2018-09-28T20:11:12.012Z,95506.71
2018-09-28T20:13:40.719Z,95503.08
2018-09-28T20:16:09.485Z,95295.03
2018-09-28T20:18:38.200Z,95511.44
2018-09-28T20:21:07.300Z,95476.70
2018-09-28T20:23:36.062Z,95517.06
2018-09-28T20:26:04.852Z,95509.17
2018-09-28T20:28:33.628Z,95501.27
2018-09-28T20:31:02.365Z,95504.64
2018-09-28T20:33:31.115Z,95510.70
2018-09-28T20:35:59.768Z,95507.45
2018-09-28T20:38:28.497Z,95504.95
2018-09-28T20:40:57.204Z,95504.40
2018-09-28T20:43:25.975Z,95500.34
2018-09-28T20:45:54.661Z,95507.10
2018-09-28T20:48:23.372Z,95496.16
2018-09-28T20:50:52.048Z,95510.02
2018-09-28T20:53:20.852Z,95505.75
2018-09-28T20:55:49.517Z,95504.37
2018-09-28T20:58:18.169Z,95506.03
2018-09-28T21:00:46.858Z,95509.63
2018-09-28T21:03:15.498Z,95522.97
2018-09-28T21:05:44.143Z,95508.27
2018-09-28T21:08:12.791Z,95505.56
2018-09-28T21:10:41.741Z,95502.05
2018-09-28T21:13:10.452Z,95500.25
2018-09-28T21:15:39.118Z,95501.59
2018-09-28T21:18:07.843Z,95501.70
2018-09-28T21:20:36.533Z,95496.76
2018-09-28T21:23:05.212Z,95505.20
2018-09-28T21:25:34.077Z,95506.66
2018-09-28T21:28:02.745Z,95505.30
2018-09-28T21:30:31.467Z,95505.96
2018-09-28T21:33:00.128Z,95503.50
2018-09-28T21:35:29.009Z,95509.56
2018-09-28T21:37:57.772Z,95507.80
2018-09-28T21:40:26.488Z,95503.66
2018-09-28T21:42:55.312Z,95512.11
2018-09-28T21:45:24.062Z,95515.61
2018-09-28T21:47:52.768Z,95509.86
2018-09-28T21:50:21.575Z,95509.11
2018-09-28T21:52:50.292Z,95512.36
2018-09-28T21:55:19.083Z,95503.35
2018-09-28T21:57:47.938Z,95508.41
2018-09-28T22:00:16.648Z,95498.85
2018-09-28T22:02:45.340Z,95501.00
2018-09-28T22:05:14.076Z,95496.95
2018-09-28T22:07:42.924Z,95496.70
2018-09-28T22:10:11.659Z,95494.55
2018-09-28T22:12:40.372Z,95497.36
2018-09-28T22:15:09.021Z,95493.75
2018-09-28T22:17:37.785Z,95490.26
2018-09-28T22:20:06.940Z,95483.05
2018-09-28T22:22:35.608Z,95482.50
2018-09-28T22:25:04.333Z,95481.01
2018-09-28T22:27:32.957Z,95480.34
2018-09-28T22:30:01.637Z,95482.80
2018-09-28T22:32:30.317Z,95478.75
2018-09-28T22:34:59.056Z,95258.41
2018-09-28T22:37:27.701Z,95482.05
2018-09-28T22:39:56.494Z,95483.75
2018-09-28T22:42:25.209Z,95486.10
2018-09-28T22:44:54.006Z,95487.00
2018-09-28T22:47:22.781Z,95473.70
2018-09-28T22:49:51.587Z,95483.05
2018-09-28T22:52:20.269Z,95475.80
2018-09-28T22:54:48.941Z,95470.64
2018-09-28T22:57:17.665Z,95478.16
2018-09-28T22:59:46.414Z,95478.95
2018-09-28T23:02:15.206Z,95484.25
2018-09-28T23:04:43.900Z,95479.34
2018-09-28T23:07:12.700Z,95478.00
2018-09-28T23:09:41.395Z,95477.89
2018-09-28T23:12:10.067Z,95481.59
2018-09-28T23:14:38.836Z,95477.40
2018-09-28T23:17:07.639Z,95477.40
2018-09-28T23:19:36.369Z,95475.94
2018-09-28T23:22:05.152Z,95470.41
2018-09-28T23:24:33.817Z,95473.94
2018-09-28T23:27:02.574Z,95472.00
2018-09-28T23:29:31.238Z,95470.66
2018-09-28T23:31:59.964Z,95465.25
2018-09-28T23:34:28.600Z,95469.30
2018-09-28T23:36:57.277Z,95465.34
2018-09-28T23:39:25.958Z,95427.39
2018-09-28T23:41:54.717Z,95463.16
2018-09-28T23:44:23.386Z,95452.69
2018-09-28T23:46:52.121Z,95449.20
2018-09-28T23:49:20.938Z,95449.39
2018-09-28T23:51:49.951Z,95452.58
2018-09-28T23:54:18.762Z,95454.69
2018-09-28T23:56:47.742Z,95453.64
2018-09-28T23:59:16.476Z,95448.13
